Scroll down
FLIGHT INFORMATION
Cathay Pacific

CPA747

At Arrival Gate

WSSS
 NZAA
DATE: 2020-10-30
GATE:  -
GATE DEPARTURE: 19:13
TAKEOFF: 19:30
DATE: 2020-10-31
GATE:  -
LANDING: 05:25
GATE ARRIVAL: 05:28
FLIGHT DATA
Crew: 
Speed: 
950 kph
Altitude: 
37,212 ft
Stage Length: 
8,409.0 km
Block Time: 
10.1 hrs
Flight Time: 
9.9 hrs
Fuel Used: 
106,047 kg
Cleared Route: WSSS TOPOM DOKTA DOGRA DOSNO VENPA VENIX SURGA RUSMA SAMSU MASRI RAFIS TAVIP SUMDI RAMPY UDONO BLI ATMAP CIN VIPOX SCHEE AYE GOMUL AGAGO GUGAB GOKEN EVIEC TAROR KADUV PKS KADOM TESAT EVONN GEROS WALTZ LEGAN LUNBI NZAA
TRACK DATA
50,000 ft 1,000 kts
AIRCRAFT INFO AND CUMULATIVE STATS
Aircraft Type: 
B748
Registration: 
SELCAL: 
MSN/LN: 
0 / 1
Operator: 
Total Flights: 
5
Total Block Time: 
43.4 hrs
Total Flight Time: 
42 hrs
Total Fuel Used: 
311,848 kg
DATALINK LOG | Newest first | Current as of: 2022-09-29 23:26:18
LABEL SEQUENCE CONTENT Dn/Up
QD331905:28 51.8▼ Dn
QC301605:25▼ Dn
QB084219:30▼ Dn
2U2032WSSS 300830Z 13007KT 090V190 9999 FEW018TCU SCT280 30/24 Q1007 NOSIG▲ Up
2S5734WSSS▼ Dn
2U1826WSSS 300830Z 13007KT 090V190 9999 FEW018TCU SCT280 30/24 Q1007 NOSIG▲ Up
2S5633WSSS▼ Dn
QA512819:13 286.5▼ Dn
2S4827WSSS▼ Dn
A34522CLEARED TO NZAA VIA VENI3F SURGA M635 RAMPY M635 ATMAP A576 CIN T29 AYE G222 PKS A576 TESAT L521 EVONN L521 LEGAN L521 LUNBI ARAD7B. SQUAWK 2251.▲ Up
B34522WSSS NZAA CPA747 BJIN F ▼ Dn
Q04118[LINK ACK]▲ Up
Q04118[LINK TEST]▼ Dn


AIRCRAFT HISTORY
FLIGHT DATE FLIGHT NO. ORIGIN DESTINATION CLEARED ROUTE BLOCK TIME FLIGHT TIME FUEL USED PILOT
2020-11-06OMDB OTBD 1.2 hrs0.8 hrs0 lbken rose
2020-11-02CPA222KSFO OMDB KSFO DEDHD BTG OLM CFXKC CFQLS CFGFX YVR 55N23 60N21 65N18 70N15 7230N11000W 77N00 8180N 8260N 8240N 8120N 7800E 7610E OLOLI RUDAM LIRKI OTMOL RUGEN OLBAN OLATA DIKAN NOVRO DIBLU MILPI ASNUG BLZ GIPRI UREPI ARKON RILAD ORTIT BD SW ARBOK DK FV US NIBOK PEKOR PT AMUTI ST WGD KARNI BASKO UP LABUG KOTOD DITEK BETOR ALABO BISNA NOBVA BAKUV MOSUM PIROG ULDUS ULEXI NSR DEMBA ELEDI OBRIX RERET KAVEK PURKI ALNER BONOL YZD GADPU DESLA DAVUT SRJ ASMET TAVNO BND MOBET PATAT EGPEP ITLAP PUVAL OMDB15.7 hrs15.5 hrs309,777 lbMatthew Gales
2020-11-01CPA1101NZAA KSFO NZAA EMRAG RAXIN SELKA MOMTA REPOL KETUP TBU EKEDI OGELA DRAWN TUT LAKER BUDRA ELLMS 05N60 10N57 15N53 20N49 24N45 DIALO 31N35 34N30 CINNY KSFO12.8 hrs12.5 hrs287,319 lbMatthew Gales
2020-10-30CPA747WSSS NZAA WSSS TOPOM DOKTA DOGRA DOSNO VENPA VENIX SURGA RUSMA SAMSU MASRI RAFIS TAVIP SUMDI RAMPY UDONO BLI ATMAP CIN VIPOX SCHEE AYE GOMUL AGAGO GUGAB GOKEN EVIEC TAROR KADUV PKS KADOM TESAT EVONN GEROS WALTZ LEGAN LUNBI NZAA10.1 hrs9.9 hrs233,795 lbMatthew Gales
2020-05-10CPA510VHHH WSSS VHHH PRAWN RUMSY TUNNA TITAN PECAN LEMON EPDOS ENBOK EPKAL EGEMU EXOTO VEPAM KARAN SOSPA PTH RUTIT ELSAS CN ESPOB ESBUM ELALO KILOT VINIL PIBAP EGORA RW20C3.7 hrs3.3 hrs65,962 lbRandall Smith